Temps Etape 1 et Heures de D├ępart Etape 2  
 
HeureConducteurAsaCoéquipierVoitureGroupeClassePénaTempsEcarts
10h352GASCOU EmmanuelARDECHECHAPUS CélinePEUGEOT 207 S2000A7S 0:45:36,0 
10h3711REUCHE LaurentSuisseDERIAZ JeanPEUGEOT 207 S2000A7S 0:46:02,2000:26,20
10h394JEAN-JOSEPH SimonMARTINIQUEBOYERE JackPEUGEOT 207 S2000A7S 0:46:02,9000:26,90
10h4121PRIVE ThomasAUXERROISGIROUX JulienSUBARU ImprezaN4 0:46:15,9000:39,90
10h438BRUYNEEL DominiqueBelgiqueDESCAMPS Jean-CharlesSUBARU Impreza WRCA8W 0:47:01,1001:25,10
10h4539GILBERT QuentinNANCYTUTELAIRE RémiCITROËN DS3 R3RR3 0:47:23,4001:47,40
10h4712TANGHE ClaudieBelgiqueSQUEDIN DenisTOYOTA Celica GT4FA8 0:47:45,002:09,0
10h496BAUD Lionel"74"CRAEN FabienPEUGEOT 206 WRCA8W 0:47:48,2002:12,20
10h511CHIEUSSE PaulMENTONVEILLAS BenjaminPEUGEOT 307 WRCA8W 0:47:55,6002:19,60
10h537DEVEZA AlainSAINT-RAPHAËLTEZENAS DU MONTCEL GuySKODA Octavia WRCA8W 0:48:10,6002:34,60
10h559VANDEWAUWER Jean-PierreBelgiqueMARNETTE EricSKODA Octavia WRCA8W 0:48:13,002:37,0
10h565HENNION CédricBITTEROISISNARD PatrickCITROËN Xsara WRCA8W 11:30:58,70Super Rallye
10h5737ABBRING KévinHollandeVANNESTE LaraCITROËN DS3 R3RR3 0:48:39,3003:03,30
10h5858ABELLI JulienGRASSEFONTANAUD RomainPEUGEOT 207 RcRR3 0:48:46,1003:10,10
10h5952MILLET DenisSEQUANIEDUVAL GuillaumePEUGEOT 207 RcRR3 0:49:00,8003:24,80
11h0045BONNEFIS GermainROUTE D'ARGENTFOURNIER OlivierPEUGEOT 207 RcRR3 0:49:20,6003:44,60
11h0153BLANC François-XavierSAINT-AFFRIQUEVIDA AlexandrePEUGEOT 207 RcRR3 0:49:38,5004:02,50
11h0238JEANNEY DavyBERRYBUCHET SylvainCITROËN DS3 R3RR3 0:49:46,3004:10,30
11h0354MARCHÉ PierreAUXERROISGALLIER CharlènePEUGEOT 207 RcRR3 0:49:47,9004:11,90
11h0450RABASSE CédricLANGRESSEVRETTE SabrinaPEUGEOT 207 RcRR3 0:49:56,8004:20,80
11h0547JOUINES RémiBITTEROISMAHÉO ArnaudPEUGEOT 207 RcRR3 0:49:57,7004:21,70
11h0678DUNAND Jean-BaptisteCHAMONIX-SALLANCHESDEBORNES YannickCITROËN Saxo T4A6K 0:49:57,7004:21,70
11h0722RIVIERE NicolasMEDITERRANÉEDOMENECH EricMITSUBISHI Lancer Evo9N4 0:49:57,7004:21,70
11h0867COMOLI FrantzVOSGIENGALMICHE IsabelleCITROËN C2 R2 MaxRR2 0:49:58,5004:22,50
11h0959MOURET MichelROQUE ET DURANCEFABREGUE RégisPEUGEOT 207 RcRR3 0:49:58,9004:22,90
11h1079LAPOUILLE HuguesDETROITDEVIENNE PhilippeCITROËN Saxo T4A6K 0:49:59,9004:23,90
11h1181GIROD AlainJURADUFAY FranckCITROËN Saxo T4A6K 0:50:08,8004:32,80
11h1248SIAS FranckCORSICADEROUSSEAUX CathyPEUGEOT 207 RcRR3 0:50:10,004:34,0
11h1346AUDIRAC CyrilGRASSECARNEVALÉ MariePEUGEOT 207 RcRR3 0:50:14,8004:38,80
11h1415DUQUESNE DidierBelgiqueVIAENE SteveTOYOTA Celica GT4FA8 0:50:19,004:43,0
11h1540RAOUX Jean-MichelRESTONICAMAGAT LaurentCITROËN DS3 R3RR3 0:50:19,3004:43,30
11h1656DE MEVIUS GhislainBelgiqueBORGUET EricPEUGEOT 207 RcRR3 0:50:21,6004:45,60
11h1725PICARD Morgan91 ETAMPESMOREAU GabinMITSUBISHI Lancer Evo10N4 0:50:23,9004:47,90
11h1857LEFEBVRE StéphaneARTOIS LITTORALDUBOIS ThomasPEUGEOT 207 RcRR3 0:50:25,5004:49,50
11h1927MARTI ChristianROUTE D'ARGENTPELAMOURGUES LaurenceMITSUBISHI Lancer Evo9N4 0:50:31,9004:55,90
11h2080FOUQUES LaurentAUXERROISCOMBE GeoffreyCITROËN Saxo T4A6K 0:50:32,7004:56,70
11h2183GRAVIER FranckVOSGIENCORTOT AnnabelleCITROËN Saxo T4A6K 0:50:57,9005:21,90
11h2261BERNARDONI MathieuMEDITERRANÉEGUY TomPEUGEOT 207 RcRR3 0:51:09,6005:33,60
11h2316GAIDOZ HervéLANGRESNOLLET StevieSUBARU Impreza STIA8 0:51:23,6005:47,60
11h2464MONNIN Jean-PaulFRANCHE-COMTÉGILLIOT FranckPEUGEOT 207 RcRR3 0:51:34,5005:58,50
11h2565SALIN DanielAUXERROISSALIN BrigitteRENAULT Clio R3RR3 0:51:35,7005:59,70
11h2619BESSON Jean-PascalESCAROISSAC PatriceMITSUBISHI Lancer Evo10A8 0:51:37,1006:01,10
11h2714PRINZIE StefaanBelgiqueVERMEULEN SharonSUBARU ImprezaA8 11:40:58,70Super Rallye
11h2868COUDERT MickaëlLE COTEAUMATHIAS OlivierCITROËN C2 R2 MaxRR2 0:51:47,2006:11,20
11h29104TEVELLE CédricROUTE D'ARGENTCHABERT MartinPEUGEOT 306 S16F200014 0:51:48,2006:12,20
11h30107GENDRAU PatriceAUXERROISGENDRAU EricCITROËN ZX 16VF200014 0:52:19,006:43,0
11h31101TAORMINA Jean-LucMEDITERRANÉEGROULIER VincentPEUGEOT 206 RcF200014 0:52:20,9006:44,90
11h32128GERARD DavidLANGRESJOLÉ DamienCITROËN C2F200013 0:52:22,4006:46,40
11h33102COULOUMIES VincentBITTEROISBERTHOMIEU FabienRENAULT Clio RagnottiF200014 0:52:26,6006:50,60
11h34100JULIA DavidALESAUBERTIN LudovicPEUGEOT 206 RcF200014 0:52:29,7006:53,70
11h35124VITAL Jean-PierreHAUTE VALLÉE DE LA LOIREDECOUZON PierrePEUGEOT 106 S16F200013 0:52:33,1006:57,10
11h3674CONSANI StéphaneMARSEILLEVILMOT MaximeRENAULT Twingo R2RR2 0:52:39,8007:03,80
11h37105BEYNET CédricHAUTE PROVENCEDELRIEU MathieuPEUGEOT 306 S16F200014 0:52:49,007:13,0
11h3891LAMARRE BenoîtAUXERROISDE SCHRYVER SébastienPEUGEOT 206 XSA6K 0:53:12,3007:36,30
11h3998FRANCE JulienROUTE D'ARGENTMAZARGUIL PhilippeCITROËN C2A6K 0:53:18,4007:42,40
11h40127JAKUBOWSKI JérémyHAUTE VALLÉE DE LA LOIREFAYET FrançoisPEUGEOT 106 S16F200013 0:53:37,3008:01,30
11h41126JEUDY SébastienLURONNEJEUDY YohannPEUGEOT 106 XSIF200013 0:53:39,008:03,0
11h42116CLAUDE BertrandVOSGIENGROSJEAN SébastienPEUGEOT 205 GTIF200014 0:53:45,9008:09,90
11h43131GUILLAUME Jean-RobertMIRECOURTGOUMGHAR JulienPEUGEOT 205 GTIF200013 0:54:02,6008:26,60
11h44103MONNIN ChristopheFOREZMONNIN AurélieFORD Focus RSF200014 0:54:03,6008:27,60
11h4563MAHEO HervéBITTEROISPASQUIER DominiquePEUGEOT 207 RcRR3 0:54:08,2008:32,20
11h4688DUHÉRON Jean-MarieAUXERROISLUÇON PascalCITROËN Saxo T4A6K 0:54:16,6008:40,60
11h4790REGNIER NicolasCIRCUIT DE CROIXCALONNE RémiPEUGEOT 206 XSA6K 0:54:20,2008:44,20
11h4876CONSANI RobertMARSEILLEDE LA HAYE ThibaultPEUGEOT 306 S16FA7 0:54:29,8008:53,80
11h49135GUIBERT SébastienLANGRESSARREAUD ValentinSUZUKI SwiftN2 0:54:29,9008:53,90
11h5094GUIBERT Jean-ChristopheLANGRESDELACOUR GabrielPEUGEOT 206 XSA6K 0:54:30,3008:54,30
11h51120JAUDEL ThomasSAINT-RAPHAËLRODRIGUEZ FabienPEUGEOT 309 GTIFN3 0:55:12,4009:36,40
11h5293CHOLLEY YannickVAL D'OISEGRANDEMANGE MariellePEUGEOT 206 XSA6K 0:55:12,5009:36,50
11h5385SALLES PhilippeROUTE D'ARGENTTEVELLE DanielCITROËN Saxo T4A6K 0:55:14,3009:38,30
11h54133MARTINEZ JoséVEXINDOYE ArnaudPEUGEOT 106 RallyeF200013 0:55:19,009:43,0
11h5534FRONTEDDU Jean-PierreALPESBALANDRIS MatthiasSUBARU Impreza GTN4 0:55:37,2010:01,20
11h56129HERTEL JonnhyAUXERROISBARY DominiqueCITROËN Saxo VTSF200013 0:55:47,6010:11,60
11h57110REYNAUD YvanLANGRESHUGUENOT MickaelOPEL MantaF200014 0:55:49,9010:13,90
11h5886DEPUYDT DirkBelgiqueDEWAELE KoenCITROËN Saxo T4A6K 0:55:50,1010:14,10
11h5926GROHENS Jean-PaulVINS DE MÂCONDEZIRÉ FrédéricMITSUBISHI Lancer Evo7FN4 0:55:51,9010:15,90
12h0092CARIDROIT GillesPAYS DE MONTBELIARDGUIDOLIN AdrienPEUGEOT 206 XSA6K 0:55:57,2010:21,20
12h0141CHAPUS SergeMIDI-TOULOUSERAVAULT FrançoisCITROËN DS3 R3RR3 0:55:59,010:23,0
12h02134PUT WilliamMONTELIMARBERENGIER ClémentPEUGEOT 205 GTIFN2 0:56:04,8010:28,80
12h03130CUNIN AntoineMIRECOURTMAILLARD SébastienPEUGEOT 206 XSF200013 0:56:09,7010:33,70
12h0496PELISSIER JoffreyALESPONGE GuillaumePEUGEOT 206 XSA6K 0:56:22,9010:46,90
12h0573NOGIER CatherineNEVERS MAGNY COURSNOGIER BenoîtCITROËN C2 R2 MaxRR2 0:56:26,2010:50,20
12h06114BARD NicolasAUXERROISGRECO MarcPEUGEOT 205 GTIF200014 0:56:28,8010:52,80
12h0732HEEMS DanyCROISETTEHEEMS JulesMITSUBISHI Lancer Evo6FN4 0:56:33,4010:57,40
12h08138JOUINES JeanBITTEROISVILLANI Jean-RenéPEUGEOT 106 XSIFN1 0:56:36,4011:00,40
12h0975CHOUDEY PascalCHAMPAGNECHARIOT RenéRENAULT Clio RSA7 0:56:45,7011:09,70
12h1095POILLOT OlivierAVALLONHAGENAUER CorinnePEUGEOT 206 XSA6K 0:56:56,6011:20,60
12h11139BRISSON EddyCORBIERES CHÂTEAU DE LASTOURSMASSON KévinPEUGEOT 205 RallyeFN110s0:57:04,4011:28,40
12h12112LESCURE PhilippeSAINT-AFFRIQUECORTESE DaniellePEUGEOT 205 GTIF200014 0:57:24,6011:48,60
12h1370DUVERGER AntoineMEDITERRANÉEDUVERGER SergeCITROËN C2 R2 MaxRR2 0:57:25,4011:49,40
12h1477TATIN XavierMONTELIMARRAYMOND AlainPEUGEOT 306 S16FA7 0:57:36,012:00,0
12h15121VANTILLARD Jean-MarcDRÔMEMARBOEUF GrégoryCITROËN Xsara VTSFN3 0:57:42,7012:06,70
12h16118CAMBON DanielHERAULTCAMBON ValérieRENAULT Clio RagnottiN3 11:30:58,70Super Rallye
12h1797BERGER OlivierARDECHEBOURDIER AudreyPEUGEOT 206 XSA6K 0:57:52,3012:16,30
12h1889HEBETTE FrédéricBelgiqueBOURGUIGNON PierreCITROËN Saxo Kit CarA6K 0:57:56,7012:20,70
12h1933CARBONARO AldoGARD-CEVENNESGEORGE NicolasMITSUBISHI Lancer Evo9N4 0:58:03,8012:27,80
12h2043HELMER GeorgesMEDITERRANÉEMOSTACHI StéphaneCITROËN DS3 R3RR3 0:58:30,3012:54,30
12h21122MEULEMAN PhilippeBelgiquePAUTHIER BasileSKODA FabiaA5 0:59:53,014:17,0
12h2287MOURTERON EricLANGRESDESSY Claire-MarieCITROËN Saxo T4A6K 1:00:04,014:28,0
12h23113GERARD AurélienSTANISLASDEFEUX GrégoryPEUGEOT 205 GTIF20001450s1:00:28,7014:52,70
12h24125GERARD FlorentSEQUANIEDROZ-BARTHOLET SophieHONDA CivicF200013 1:00:37,1015:01,10
12h2571DUBOIS ThierryFRANÇAISE DE MECANIQUEDUBOIS SigridCITROËN C2 R2 MaxRR2 1:00:44,3015:08,30
12h2669DUBERT VincentL'AC DE CANNESSITARZ SylvianeCITROËN C2 R2 MaxRR2 11:30:58,70Super Rallye
12h27111HUGUENOT JoëlLANGRESGIRONCOURT BorisOPEL MantaF200014 1:01:19,1015:43,10
12h28140MAUVAIS MichelLURONNEVAUTHIER EmilienPEUGEOT 205 RallyeFN1 1:01:25,5015:49,50
12h29137BROCHET EmmanuelLANGRESBOISSET JamesPEUGEOT 106 XSIFN1 1:02:07,4016:31,40
12h30136GUERANGER NicolasPAYS DE MONTBELIARDBOUTIER JuliePEUGEOT 106 S16FN2 1:02:15,5016:39,50
12h3160DALMASSO CharlotteGRASSEPONZEVERA MarinePEUGEOT 207 RcRR3 1:02:28,9016:52,90
12h32141GIRARDIN RaymondLANGRESFRANÇOIS SolèneCITROËN Visa GTF200011 1:02:58,3017:22,30
12h33106MARINOT SylvainPAYS DE MONTBELIARDHANRY MarieFORD Escort RS 2000F200014 1:04:50,6019:14,60
12h3431JAILLARD JéromeLANGRESLAGUET JuliePEUGEOT 106 XSIFA5 1:06:40,7021:04,70
12h35115ALLARD-LATOURD VincentAUXERROISHERPSONT FabiennePEUGEOT 205 GTIF200014 1:20:58,7035:22,70